createdAt,value
2019-04-07T00:01:55.291Z,25.26
2019-04-07T00:05:10.312Z,25.26
2019-04-07T00:08:05.671Z,25.26
2019-04-07T00:11:09.422Z,25.25
2019-04-07T00:14:12.920Z,25.24
2019-04-07T00:17:17.910Z,25.22
2019-04-07T00:20:22.056Z,25.23
2019-04-07T00:23:25.665Z,25.21
2019-04-07T00:26:29.220Z,25.21
2019-04-07T00:29:32.659Z,25.21
2019-04-07T00:32:37.209Z,25.19
2019-04-07T00:35:40.685Z,25.20
2019-04-07T00:38:44.198Z,25.18
2019-04-07T00:41:48.721Z,25.16
2019-04-07T00:44:52.220Z,25.16
2019-04-07T00:47:55.950Z,25.18
2019-04-07T00:51:00.245Z,25.15
2019-04-07T00:54:03.983Z,25.18
2019-04-07T00:57:07.464Z,25.14
2019-04-07T01:00:12.435Z,25.16
2019-04-07T01:03:15.903Z,25.16
2019-04-07T01:06:19.356Z,25.14
2019-04-07T01:09:23.331Z,25.12
2019-04-07T01:12:27.038Z,25.13
2019-04-07T01:15:30.588Z,25.13
2019-04-07T01:18:34.025Z,25.13
2019-04-07T01:21:39.047Z,25.11
2019-04-07T01:24:43.152Z,25.11
2019-04-07T01:27:47.817Z,25.09
2019-04-07T01:30:52.341Z,25.10
2019-04-07T01:33:56.405Z,25.08
2019-04-07T01:37:01.020Z,25.10
2019-04-07T01:40:05.730Z,25.08
2019-04-07T01:43:17.498Z,25.08
2019-04-07T01:46:28.624Z,25.09
2019-04-07T01:50:02.181Z,25.08
2019-04-07T01:53:24.592Z,25.07
2019-04-07T01:56:47.197Z,25.06
2019-04-07T02:00:08.426Z,25.06
2019-04-07T02:03:29.963Z,25.05
2019-04-07T02:06:58.758Z,25.04
2019-04-07T02:10:16.245Z,25.05
2019-04-07T02:13:28.712Z,25.02
2019-04-07T02:16:57.847Z,25.02
2019-04-07T02:20:17.681Z,25.03
2019-04-07T02:23:37.171Z,25.02
2019-04-07T02:26:45.714Z,25.02
2019-04-07T02:30:14.544Z,24.98
2019-04-07T02:33:24.880Z,25.01
2019-04-07T02:36:47.423Z,25.01
2019-04-07T02:40:10.272Z,24.99
2019-04-07T02:43:24.052Z,24.99
2019-04-07T02:46:46.291Z,25.00
2019-04-07T02:50:17.749Z,24.99
2019-04-07T02:53:33.025Z,24.98
2019-04-07T02:56:49.590Z,24.98
2019-04-07T02:59:59.657Z,24.98
2019-04-07T03:03:21.437Z,24.97
2019-04-07T03:06:51.875Z,24.97
2019-04-07T03:09:58.494Z,24.96
2019-04-07T03:13:19.704Z,24.95
2019-04-07T03:16:42.355Z,24.94
2019-04-07T03:19:52.175Z,24.94
2019-04-07T03:23:26.589Z,24.93
2019-04-07T03:26:51.395Z,24.92
2019-04-07T03:30:03.554Z,24.93
2019-04-07T03:33:22.679Z,24.94
2019-04-07T03:37:12.858Z,24.90
2019-04-07T03:40:02.467Z,24.90
2019-04-07T03:43:15.417Z,24.90
2019-04-07T03:46:28.513Z,24.89
2019-04-07T03:49:49.675Z,24.89
2019-04-07T03:53:00.102Z,24.90
2019-04-07T03:56:12.196Z,24.88
2019-04-07T03:59:35.317Z,24.87
2019-04-07T04:02:57.048Z,24.86
2019-04-07T04:06:10.593Z,24.88
2019-04-07T04:09:22.248Z,24.86
2019-04-07T04:12:34.223Z,24.87
2019-04-07T04:15:48.224Z,24.85
2019-04-07T04:18:52.585Z,24.85
2019-04-07T04:21:56.286Z,24.85
2019-04-07T04:25:00.879Z,24.85
2019-04-07T04:28:05.557Z,24.85
2019-04-07T04:31:09.457Z,24.83
2019-04-07T04:34:14.001Z,24.83
2019-04-07T04:37:33.281Z,24.82
2019-04-07T04:40:24.254Z,24.82
2019-04-07T04:43:27.980Z,24.82
2019-04-07T04:46:34.465Z,24.83
2019-04-07T04:49:39.067Z,24.80
2019-04-07T04:52:42.864Z,24.82
2019-04-07T04:55:47.196Z,24.82
2019-04-07T04:58:50.851Z,24.81
2019-04-07T05:01:54.285Z,24.79
2019-04-07T05:04:57.812Z,24.80
2019-04-07T05:08:04.051Z,24.78
2019-04-07T05:11:06.873Z,24.78
2019-04-07T05:14:10.545Z,24.78
2019-04-07T05:17:15.272Z,24.79
2019-04-07T05:20:19.005Z,24.78
2019-04-07T05:23:23.109Z,24.79
2019-04-07T05:26:26.591Z,24.77
2019-04-07T05:29:31.242Z,24.78
2019-04-07T05:32:34.986Z,24.77
2019-04-07T05:35:38.529Z,24.79
2019-04-07T05:38:42.146Z,24.77
2019-04-07T05:41:45.826Z,24.77
2019-04-07T05:44:49.452Z,24.77
2019-04-07T05:47:53.481Z,24.76
2019-04-07T05:51:00.507Z,24.77
2019-04-07T05:54:02.718Z,24.75
2019-04-07T05:57:06.319Z,24.74
2019-04-07T06:00:13.633Z,24.76
2019-04-07T06:03:16.501Z,24.76
2019-04-07T06:06:20.893Z,24.74
2019-04-07T06:09:26.417Z,24.75
2019-04-07T06:12:29.973Z,24.75
2019-04-07T06:15:35.950Z,24.75
2019-04-07T06:18:39.515Z,24.74
2019-04-07T06:21:46.045Z,24.73
2019-04-07T06:24:48.780Z,24.75
2019-04-07T06:27:53.414Z,24.74
2019-04-07T06:31:00.235Z,24.74
2019-04-07T06:34:03.303Z,24.74
2019-04-07T06:37:06.892Z,24.73
2019-04-07T06:40:12.251Z,24.74
2019-04-07T06:43:17.050Z,24.73
2019-04-07T06:46:39.046Z,24.71
2019-04-07T06:50:05.627Z,24.71
2019-04-07T06:53:20.662Z,24.73
2019-04-07T06:56:42.506Z,24.71
2019-04-07T07:00:23.622Z,24.72
2019-04-07T07:03:39.172Z,24.72
2019-04-07T07:07:06.249Z,24.70
2019-04-07T07:10:30.425Z,24.71
2019-04-07T07:13:55.020Z,24.71
2019-04-07T07:17:14.931Z,24.71
2019-04-07T07:20:27.621Z,24.69
2019-04-07T07:23:33.258Z,24.69
2019-04-07T07:26:36.806Z,24.69
2019-04-07T07:29:40.935Z,24.70
2019-04-07T07:32:44.663Z,24.70
2019-04-07T07:35:49.192Z,24.70
2019-04-07T07:38:59.843Z,24.69
2019-04-07T07:41:58.476Z,24.69
2019-04-07T07:45:02.646Z,24.72
2019-04-07T07:48:07.421Z,24.70
2019-04-07T07:51:13.282Z,24.69
2019-04-07T07:54:17.319Z,24.69
2019-04-07T07:57:23.430Z,24.69
2019-04-07T08:00:26.603Z,24.70
2019-04-07T08:03:30.405Z,24.70
2019-04-07T08:06:34.599Z,24.69
2019-04-07T08:09:39.341Z,24.71
2019-04-07T08:12:43.709Z,24.70
2019-04-07T08:15:47.471Z,24.69
2019-04-07T08:18:51.085Z,24.70
2019-04-07T08:21:54.676Z,24.71
2019-04-07T08:24:58.823Z,24.71
2019-04-07T08:28:04.570Z,24.70
2019-04-07T08:31:07.818Z,24.72
2019-04-07T08:34:12.096Z,24.71
2019-04-07T08:37:16.230Z,24.75
2019-04-07T08:40:19.955Z,24.82
2019-04-07T08:43:24.687Z,24.87
2019-04-07T08:46:35.238Z,24.91
2019-04-07T08:49:36.558Z,24.94
2019-04-07T08:52:42.677Z,24.96
2019-04-07T08:55:48.556Z,24.99
2019-04-07T08:58:51.088Z,25.01
2019-04-07T09:01:54.663Z,25.05
2019-04-07T09:04:58.118Z,25.06
2019-04-07T09:08:05.539Z,25.08
2019-04-07T09:11:15.888Z,25.11
2019-04-07T09:14:20.246Z,25.12
2019-04-07T09:17:53.194Z,25.14
2019-04-07T09:21:37.259Z,25.16
2019-04-07T09:24:40.345Z,25.20
2019-04-07T09:28:03.223Z,25.20
2019-04-07T09:31:14.344Z,25.23
2019-04-07T09:34:44.663Z,25.25
2019-04-07T09:38:23.598Z,25.28
2019-04-07T09:41:35.316Z,25.29
2019-04-07T09:44:51.720Z,25.31
2019-04-07T09:48:04.118Z,25.33
2019-04-07T09:51:30.974Z,25.36
2019-04-07T09:55:09.469Z,25.38
2019-04-07T09:58:25.186Z,25.40
2019-04-07T10:01:51.927Z,25.42
2019-04-07T10:05:16.101Z,25.45
2019-04-07T10:08:31.612Z,25.48
2019-04-07T10:11:52.886Z,25.50
2019-04-07T10:15:07.690Z,25.51
2019-04-07T10:18:25.276Z,25.49
2019-04-07T10:21:49.712Z,25.49
2019-04-07T10:25:15.563Z,25.51
2019-04-07T10:28:30.246Z,25.52
2019-04-07T10:31:47.378Z,25.50
2019-04-07T10:35:13.667Z,25.52
2019-04-07T10:38:40.113Z,25.53
2019-04-07T10:41:53.159Z,25.54
2019-04-07T10:45:12.019Z,25.57
2019-04-07T10:48:24.874Z,25.58
2019-04-07T10:51:54.793Z,25.58
2019-04-07T10:55:09.040Z,25.57
2019-04-07T10:58:20.974Z,25.59
2019-04-07T11:01:52.294Z,25.61
2019-04-07T11:05:01.931Z,25.64
2019-04-07T11:08:30.950Z,25.65
2019-04-07T11:11:53.251Z,25.65
2019-04-07T11:15:31.337Z,25.73
2019-04-07T11:19:02.000Z,25.75
2019-04-07T11:22:23.650Z,25.76
2019-04-07T11:25:46.089Z,25.78
2019-04-07T11:28:54.225Z,25.80
2019-04-07T11:32:04.323Z,25.79
2019-04-07T11:35:22.204Z,25.82
2019-04-07T11:38:51.640Z,25.82
2019-04-07T11:42:15.332Z,25.83
2019-04-07T11:45:56.138Z,25.85
2019-04-07T11:49:10.735Z,25.86
2019-04-07T11:52:23.573Z,25.84
2019-04-07T11:55:47.513Z,25.82
2019-04-07T11:59:20.354Z,25.82
2019-04-07T12:02:36.404Z,25.83
2019-04-07T12:05:48.436Z,25.84
2019-04-07T12:09:03.337Z,25.83
2019-04-07T12:12:18.590Z,25.82
2019-04-07T12:15:37.259Z,25.80
2019-04-07T12:19:00.178Z,25.79
2019-04-07T12:22:22.757Z,25.81
2019-04-07T12:25:56.880Z,25.79
2019-04-07T12:29:14.893Z,25.78
2019-04-07T12:32:29.232Z,25.77
2019-04-07T12:35:53.502Z,25.76
2019-04-07T12:39:16.206Z,25.79
2019-04-07T12:42:44.805Z,25.78
2019-04-07T12:46:12.989Z,25.79
2019-04-07T12:49:36.281Z,25.83
2019-04-07T12:53:04.870Z,25.87
2019-04-07T12:56:18.774Z,25.87
2019-04-07T12:59:48.684Z,25.87
2019-04-07T13:03:16.908Z,25.87
2019-04-07T13:06:42.219Z,25.86
2019-04-07T13:09:52.392Z,25.88
2019-04-07T13:13:13.883Z,25.89
2019-04-07T13:16:43.788Z,25.87
2019-04-07T13:20:00.893Z,25.91
2019-04-07T13:23:12.377Z,25.95
2019-04-07T13:26:34.558Z,25.98
2019-04-07T13:29:46.567Z,25.98
2019-04-07T13:33:01.640Z,25.98
2019-04-07T13:36:32.076Z,25.97
2019-04-07T13:40:03.976Z,25.96
2019-04-07T13:43:26.493Z,25.95
2019-04-07T13:46:49.043Z,25.93
2019-04-07T13:50:02.104Z,25.93
2019-04-07T13:53:14.556Z,25.91
2019-04-07T13:56:40.778Z,25.93
2019-04-07T13:59:53.219Z,25.95
2019-04-07T14:03:03.752Z,25.94
2019-04-07T14:06:16.345Z,25.97
2019-04-07T14:09:57.224Z,26.02
2019-04-07T14:13:15.999Z,26.06
2019-04-07T14:16:34.661Z,26.06
2019-04-07T14:19:57.934Z,26.08
2019-04-07T14:23:09.014Z,26.08
2019-04-07T14:26:27.989Z,26.12
2019-04-07T14:29:40.612Z,26.12
2019-04-07T14:33:12.304Z,26.17
2019-04-07T14:36:47.994Z,26.21
2019-04-07T14:40:13.299Z,26.24
2019-04-07T14:43:31.073Z,26.27
2019-04-07T14:47:01.887Z,26.31
2019-04-07T14:50:30.965Z,26.32
2019-04-07T14:53:53.023Z,26.31
2019-04-07T14:57:22.404Z,26.30
2019-04-07T15:00:44.020Z,26.29
2019-04-07T15:03:48.601Z,26.29
2019-04-07T15:07:08.074Z,26.33
2019-04-07T15:10:23.138Z,26.36
2019-04-07T15:13:28.296Z,26.34
2019-04-07T15:16:32.917Z,26.34
2019-04-07T15:19:37.487Z,26.37
2019-04-07T15:22:44.793Z,26.37
2019-04-07T15:25:47.459Z,26.40
2019-04-07T15:28:51.025Z,26.43
2019-04-07T15:31:54.502Z,26.43
2019-04-07T15:34:59.001Z,26.49
2019-04-07T15:38:03.961Z,26.43
2019-04-07T15:41:10.723Z,26.42
2019-04-07T15:44:14.413Z,26.40
2019-04-07T15:47:18.144Z,26.40
2019-04-07T15:50:22.741Z,26.38
2019-04-07T15:53:29.137Z,26.37
2019-04-07T15:56:33.715Z,26.37
2019-04-07T15:59:37.411Z,26.37
2019-04-07T16:02:43.455Z,26.36
2019-04-07T16:05:48.026Z,26.35
2019-04-07T16:08:51.715Z,26.35
2019-04-07T16:11:59.216Z,26.34
2019-04-07T16:15:02.892Z,26.34
2019-04-07T16:18:08.447Z,26.33
2019-04-07T16:21:12.480Z,26.35
2019-04-07T16:24:16.728Z,26.35
2019-04-07T16:27:20.291Z,26.34
2019-04-07T16:30:24.739Z,26.32
2019-04-07T16:33:32.527Z,26.30
2019-04-07T16:36:35.169Z,26.29
2019-04-07T16:39:38.857Z,26.29
2019-04-07T16:43:00.387Z,26.32
2019-04-07T16:45:50.759Z,26.32
2019-04-07T16:48:54.454Z,26.32
2019-04-07T16:52:00.757Z,26.33
2019-04-07T16:55:04.289Z,26.31
2019-04-07T16:58:08.494Z,26.26
2019-04-07T17:01:14.288Z,26.25
2019-04-07T17:04:17.822Z,26.24
2019-04-07T17:07:22.422Z,26.22
2019-04-07T17:10:32.340Z,26.21
2019-04-07T17:13:39.411Z,26.19
2019-04-07T17:16:39.498Z,26.16
2019-04-07T17:19:43.609Z,26.15
2019-04-07T17:22:48.440Z,26.16
2019-04-07T17:25:54.793Z,26.16
2019-04-07T17:28:59.512Z,26.16
2019-04-07T17:32:03.831Z,26.18
2019-04-07T17:35:11.874Z,26.21
2019-04-07T17:38:15.906Z,26.21
2019-04-07T17:41:20.192Z,26.22
2019-04-07T17:44:36.367Z,26.20
2019-04-07T17:48:07.020Z,26.23
2019-04-07T17:51:32.255Z,26.23
2019-04-07T17:54:52.548Z,26.22
2019-04-07T17:58:03.150Z,26.22
2019-04-07T18:01:24.984Z,26.22
2019-04-07T18:04:51.880Z,26.22
2019-04-07T18:08:15.554Z,26.23
2019-04-07T18:11:37.731Z,26.23
2019-04-07T18:15:03.570Z,26.23
2019-04-07T18:18:21.286Z,26.23
2019-04-07T18:21:44.967Z,26.24
2019-04-07T18:25:03.588Z,26.24
2019-04-07T18:28:13.284Z,26.24
2019-04-07T18:31:40.056Z,26.24
2019-04-07T18:34:52.875Z,26.25
2019-04-07T18:38:21.831Z,26.23
2019-04-07T18:41:44.766Z,26.26
2019-04-07T18:45:23.149Z,26.25
2019-04-07T18:48:59.149Z,26.24
2019-04-07T18:52:29.193Z,26.24
2019-04-07T18:55:50.486Z,26.25
2019-04-07T18:59:19.204Z,26.25
2019-04-07T19:02:37.840Z,26.26
2019-04-07T19:05:47.987Z,26.26
2019-04-07T19:09:00.021Z,26.27
2019-04-07T19:12:23.002Z,26.25
2019-04-07T19:15:51.548Z,26.26
2019-04-07T19:19:13.686Z,26.26
2019-04-07T19:22:35.027Z,26.29
2019-04-07T19:25:55.434Z,26.28
2019-04-07T19:29:19.550Z,26.27
2019-04-07T19:32:38.834Z,26.27
2019-04-07T19:36:05.999Z,26.28
2019-04-07T19:39:29.625Z,26.28
2019-04-07T19:42:49.872Z,26.28
2019-04-07T19:46:12.736Z,26.26
2019-04-07T19:49:24.057Z,26.21
2019-04-07T19:52:47.750Z,26.17
2019-04-07T19:56:10.204Z,26.13
2019-04-07T19:59:28.818Z,26.10
2019-04-07T20:02:40.560Z,26.07
2019-04-07T20:06:10.895Z,26.05
2019-04-07T20:09:32.427Z,26.04
2019-04-07T20:12:59.054Z,26.00
2019-04-07T20:16:14.915Z,26.00
2019-04-07T20:19:39.492Z,25.96
2019-04-07T20:23:02.746Z,25.94
2019-04-07T20:26:24.198Z,25.91
2019-04-07T20:29:43.370Z,25.90
2019-04-07T20:32:56.741Z,25.89
2019-04-07T20:36:19.395Z,25.87
2019-04-07T20:39:32.556Z,25.86
2019-04-07T20:42:50.518Z,25.83
2019-04-07T20:46:04.952Z,25.85
2019-04-07T20:49:35.673Z,25.80
2019-04-07T20:53:22.240Z,25.82
2019-04-07T20:56:42.047Z,25.77
2019-04-07T21:00:05.201Z,25.78
2019-04-07T21:03:27.674Z,25.73
2019-04-07T21:06:54.015Z,25.74
2019-04-07T21:10:18.976Z,25.72
2019-04-07T21:13:43.049Z,25.71
2019-04-07T21:17:07.357Z,25.69
2019-04-07T21:20:28.916Z,25.70
2019-04-07T21:23:53.917Z,25.68
2019-04-07T21:27:18.503Z,25.66
2019-04-07T21:30:31.912Z,25.66
2019-04-07T21:33:56.003Z,25.64
2019-04-07T21:37:23.037Z,25.63
2019-04-07T21:40:55.717Z,25.63
2019-04-07T21:44:20.668Z,25.61
2019-04-07T21:47:46.286Z,25.59
2019-04-07T21:51:04.541Z,25.57
2019-04-07T21:54:14.805Z,25.59
2019-04-07T21:57:54.623Z,25.59
2019-04-07T22:01:16.884Z,25.58
2019-04-07T22:04:45.804Z,25.56
2019-04-07T22:08:08.046Z,25.56
2019-04-07T22:11:09.234Z,25.55
2019-04-07T22:14:14.673Z,25.54
2019-04-07T22:17:18.117Z,25.51
2019-04-07T22:20:21.738Z,25.53
2019-04-07T22:23:25.208Z,25.52
2019-04-07T22:26:29.569Z,25.52
2019-04-07T22:29:34.965Z,25.50
2019-04-07T22:32:38.518Z,25.49
2019-04-07T22:35:44.021Z,25.48
2019-04-07T22:38:47.259Z,25.47
2019-04-07T22:41:50.824Z,25.47
2019-04-07T22:44:55.091Z,25.46
2019-04-07T22:47:59.585Z,25.47
2019-04-07T22:51:09.488Z,25.46
2019-04-07T22:54:10.266Z,25.44
2019-04-07T22:57:15.405Z,25.44
2019-04-07T23:00:22.042Z,25.42
2019-04-07T23:03:27.523Z,25.43
2019-04-07T23:06:32.947Z,25.43
2019-04-07T23:09:37.003Z,25.42
2019-04-07T23:12:40.961Z,25.41
2019-04-07T23:15:47.056Z,25.40
2019-04-07T23:18:50.782Z,25.40
2019-04-07T23:21:54.252Z,25.38
2019-04-07T23:24:59.384Z,25.39
2019-04-07T23:28:02.906Z,25.37
2019-04-07T23:31:06.396Z,25.37
2019-04-07T23:34:10.920Z,25.36
2019-04-07T23:37:15.454Z,25.35
2019-04-07T23:40:18.947Z,25.34
2019-04-07T23:43:22.455Z,25.34
2019-04-07T23:46:27.322Z,25.33
2019-04-07T23:49:31.289Z,25.35
2019-04-07T23:52:35.623Z,25.33
2019-04-07T23:55:40.330Z,25.31
2019-04-07T23:58:43.841Z,25.32
